sensor_id;sensor_type;location;lat;lon;timestamp;P1;durP1;ratioP1;P2;durP2;ratioP2
64208;SDS011;50527;52.414;13.226;2022-08-19T00:00:16;5.60;;;3.10;;
64208;SDS011;50527;52.414;13.226;2022-08-19T00:02:42;5.78;;;3.55;;
64208;SDS011;50527;52.414;13.226;2022-08-19T00:05:08;6.97;;;3.70;;
64208;SDS011;50527;52.414;13.226;2022-08-19T00:07:35;6.25;;;3.70;;
64208;SDS011;50527;52.414;13.226;2022-08-19T00:10:02;5.82;;;3.30;;
64208;SDS011;50527;52.414;13.226;2022-08-19T00:12:29;11.82;;;3.45;;
64208;SDS011;50527;52.414;13.226;2022-08-19T00:14:54;8.20;;;3.40;;
64208;SDS011;50527;52.414;13.226;2022-08-19T00:17:20;5.60;;;3.15;;
64208;SDS011;50527;52.414;13.226;2022-08-19T00:19:46;5.75;;;3.50;;
64208;SDS011;50527;52.414;13.226;2022-08-19T00:22:11;6.93;;;3.22;;
64208;SDS011;50527;52.414;13.226;2022-08-19T00:24:37;5.72;;;3.58;;
64208;SDS011;50527;52.414;13.226;2022-08-19T00:27:03;7.53;;;3.17;;
64208;SDS011;50527;52.414;13.226;2022-08-19T00:29:29;4.85;;;3.25;;
64208;SDS011;50527;52.414;13.226;2022-08-19T00:31:55;7.57;;;3.10;;
64208;SDS011;50527;52.414;13.226;2022-08-19T00:34:23;7.25;;;3.45;;
64208;SDS011;50527;52.414;13.226;2022-08-19T00:36:50;7.18;;;3.30;;
64208;SDS011;50527;52.414;13.226;2022-08-19T00:39:16;6.05;;;3.40;;
64208;SDS011;50527;52.414;13.226;2022-08-19T00:41:42;5.80;;;3.38;;
64208;SDS011;50527;52.414;13.226;2022-08-19T00:44:14;7.93;;;3.13;;
64208;SDS011;50527;52.414;13.226;2022-08-19T00:46:44;6.18;;;3.50;;
64208;SDS011;50527;52.414;13.226;2022-08-19T00:49:16;6.72;;;3.28;;
64208;SDS011;50527;52.414;13.226;2022-08-19T00:51:47;6.57;;;3.20;;
64208;SDS011;50527;52.414;13.226;2022-08-19T00:54:15;5.93;;;3.20;;
64208;SDS011;50527;52.414;13.226;2022-08-19T00:56:41;5.93;;;3.28;;
64208;SDS011;50527;52.414;13.226;2022-08-19T00:59:07;9.07;;;3.47;;
64208;SDS011;50527;52.414;13.226;2022-08-19T01:01:34;7.00;;;3.40;;
64208;SDS011;50527;52.414;13.226;2022-08-19T01:04:03;10.38;;;4.03;;
64208;SDS011;50527;52.414;13.226;2022-08-19T01:06:29;6.82;;;3.08;;
64208;SDS011;50527;52.414;13.226;2022-08-19T01:08:57;6.63;;;3.45;;
64208;SDS011;50527;52.414;13.226;2022-08-19T01:11:24;5.05;;;3.25;;
64208;SDS011;50527;52.414;13.226;2022-08-19T01:13:50;6.32;;;3.30;;
64208;SDS011;50527;52.414;13.226;2022-08-19T01:16:19;7.00;;;3.50;;
64208;SDS011;50527;52.414;13.226;2022-08-19T01:18:46;6.90;;;3.40;;
64208;SDS011;50527;52.414;13.226;2022-08-19T01:21:15;7.43;;;3.67;;
64208;SDS011;50527;52.414;13.226;2022-08-19T01:23:46;5.03;;;3.53;;
64208;SDS011;50527;52.414;13.226;2022-08-19T01:26:18;7.10;;;3.55;;
64208;SDS011;50527;52.414;13.226;2022-08-19T01:28:47;7.15;;;3.35;;
64208;SDS011;50527;52.414;13.226;2022-08-19T01:31:16;6.45;;;2.95;;
64208;SDS011;50527;52.414;13.226;2022-08-19T01:33:43;6.45;;;3.20;;
64208;SDS011;50527;52.414;13.226;2022-08-19T01:36:12;5.38;;;3.50;;
64208;SDS011;50527;52.414;13.226;2022-08-19T01:38:41;5.90;;;3.70;;
64208;SDS011;50527;52.414;13.226;2022-08-19T01:41:10;6.18;;;3.65;;
64208;SDS011;50527;52.414;13.226;2022-08-19T01:43:36;7.00;;;3.58;;
64208;SDS011;50527;52.414;13.226;2022-08-19T01:46:02;5.35;;;3.22;;
64208;SDS011;50527;52.414;13.226;2022-08-19T01:48:32;5.95;;;3.38;;
64208;SDS011;50527;52.414;13.226;2022-08-19T01:50:59;6.70;;;3.28;;
64208;SDS011;50527;52.414;13.226;2022-08-19T01:53:25;6.38;;;3.58;;
64208;SDS011;50527;52.414;13.226;2022-08-19T01:55:50;7.22;;;3.45;;
64208;SDS011;50527;52.414;13.226;2022-08-19T01:58:17;14.40;;;4.22;;
64208;SDS011;50527;52.414;13.226;2022-08-19T02:00:46;23.40;;;4.25;;
64208;SDS011;50527;52.414;13.226;2022-08-19T02:03:13;11.55;;;4.00;;
64208;SDS011;50527;52.414;13.226;2022-08-19T02:05:39;15.85;;;4.13;;
64208;SDS011;50527;52.414;13.226;2022-08-19T02:08:05;18.60;;;4.60;;
64208;SDS011;50527;52.414;13.226;2022-08-19T02:10:31;7.22;;;3.60;;
64208;SDS011;50527;52.414;13.226;2022-08-19T02:12:57;6.53;;;3.63;;
64208;SDS011;50527;52.414;13.226;2022-08-19T02:15:23;13.70;;;4.43;;
64208;SDS011;50527;52.414;13.226;2022-08-19T02:17:49;7.57;;;4.30;;
64208;SDS011;50527;52.414;13.226;2022-08-19T02:20:15;9.98;;;4.55;;
64208;SDS011;50527;52.414;13.226;2022-08-19T02:22:42;11.52;;;3.97;;
64208;SDS011;50527;52.414;13.226;2022-08-19T02:25:08;9.70;;;4.55;;
64208;SDS011;50527;52.414;13.226;2022-08-19T02:27:35;6.70;;;3.95;;
64208;SDS011;50527;52.414;13.226;2022-08-19T02:30:01;6.78;;;4.38;;
64208;SDS011;50527;52.414;13.226;2022-08-19T02:32:29;8.93;;;4.30;;
64208;SDS011;50527;52.414;13.226;2022-08-19T02:34:55;10.35;;;4.13;;
64208;SDS011;50527;52.414;13.226;2022-08-19T02:37:21;7.15;;;4.47;;
64208;SDS011;50527;52.414;13.226;2022-08-19T02:40:05;8.05;;;4.22;;
64208;SDS011;50527;52.414;13.226;2022-08-19T02:42:31;8.85;;;4.13;;
64208;SDS011;50527;52.414;13.226;2022-08-19T02:44:57;7.65;;;4.38;;
64208;SDS011;50527;52.414;13.226;2022-08-19T02:47:22;7.68;;;3.90;;
64208;SDS011;50527;52.414;13.226;2022-08-19T02:49:48;8.13;;;4.40;;
64208;SDS011;50527;52.414;13.226;2022-08-19T02:52:14;7.13;;;4.50;;
64208;SDS011;50527;52.414;13.226;2022-08-19T02:54:40;7.97;;;4.50;;
64208;SDS011;50527;52.414;13.226;2022-08-19T02:57:06;8.70;;;4.22;;
64208;SDS011;50527;52.414;13.226;2022-08-19T02:59:32;8.80;;;4.57;;
64208;SDS011;50527;52.414;13.226;2022-08-19T03:01:58;7.97;;;4.50;;
64208;SDS011;50527;52.414;13.226;2022-08-19T03:04:24;10.35;;;4.97;;
64208;SDS011;50527;52.414;13.226;2022-08-19T03:06:50;10.35;;;5.00;;
64208;SDS011;50527;52.414;13.226;2022-08-19T03:09:17;6.65;;;4.20;;
64208;SDS011;50527;52.414;13.226;2022-08-19T03:11:44;9.07;;;4.55;;
64208;SDS011;50527;52.414;13.226;2022-08-19T03:14:10;8.38;;;4.65;;
64208;SDS011;50527;52.414;13.226;2022-08-19T03:16:42;7.45;;;4.50;;
64208;SDS011;50527;52.414;13.226;2022-08-19T03:21:36;7.07;;;4.30;;
64208;SDS011;50527;52.414;13.226;2022-08-19T03:24:03;8.60;;;4.65;;
64208;SDS011;50527;52.414;13.226;2022-08-19T03:26:30;10.07;;;4.60;;
64208;SDS011;50527;52.414;13.226;2022-08-19T03:28:56;8.90;;;4.57;;
64208;SDS011;50527;52.414;13.226;2022-08-19T03:31:22;7.05;;;4.55;;
64208;SDS011;50527;52.414;13.226;2022-08-19T03:33:50;7.72;;;5.00;;
64208;SDS011;50527;52.414;13.226;2022-08-19T03:36:17;7.78;;;4.68;;
64208;SDS011;50527;52.414;13.226;2022-08-19T03:38:47;7.93;;;4.43;;
64208;SDS011;50527;52.414;13.226;2022-08-19T03:41:17;8.07;;;4.80;;
64208;SDS011;50527;52.414;13.226;2022-08-19T03:43:44;7.20;;;4.57;;
64208;SDS011;50527;52.414;13.226;2022-08-19T03:46:13;7.03;;;4.38;;
64208;SDS011;50527;52.414;13.226;2022-08-19T03:48:40;8.00;;;4.60;;
64208;SDS011;50527;52.414;13.226;2022-08-19T03:51:08;9.02;;;4.63;;
64208;SDS011;50527;52.414;13.226;2022-08-19T03:53:45;8.90;;;4.57;;
64208;SDS011;50527;52.414;13.226;2022-08-19T03:56:11;8.65;;;4.65;;
64208;SDS011;50527;52.414;13.226;2022-08-19T03:58:38;7.72;;;4.22;;
64208;SDS011;50527;52.414;13.226;2022-08-19T04:01:07;8.85;;;4.90;;
64208;SDS011;50527;52.414;13.226;2022-08-19T04:03:37;7.70;;;4.50;;
64208;SDS011;50527;52.414;13.226;2022-08-19T04:06:37;8.57;;;5.00;;
64208;SDS011;50527;52.414;13.226;2022-08-19T04:11:30;8.35;;;4.75;;
64208;SDS011;50527;52.414;13.226;2022-08-19T04:13:59;8.23;;;4.70;;
64208;SDS011;50527;52.414;13.226;2022-08-19T04:16:26;9.63;;;5.00;;
64208;SDS011;50527;52.414;13.226;2022-08-19T04:18:53;7.75;;;4.53;;
64208;SDS011;50527;52.414;13.226;2022-08-19T04:21:22;9.95;;;4.82;;
64208;SDS011;50527;52.414;13.226;2022-08-19T04:23:49;9.00;;;4.85;;
64208;SDS011;50527;52.414;13.226;2022-08-19T04:26:16;7.85;;;4.63;;
64208;SDS011;50527;52.414;13.226;2022-08-19T04:28:45;8.75;;;5.10;;
64208;SDS011;50527;52.414;13.226;2022-08-19T04:31:23;9.60;;;5.38;;
64208;SDS011;50527;52.414;13.226;2022-08-19T04:33:58;9.43;;;5.13;;
64208;SDS011;50527;52.414;13.226;2022-08-19T04:36:26;8.27;;;4.63;;
64208;SDS011;50527;52.414;13.226;2022-08-19T04:38:55;9.77;;;4.88;;
64208;SDS011;50527;52.414;13.226;2022-08-19T04:41:21;7.85;;;4.78;;
64208;SDS011;50527;52.414;13.226;2022-08-19T04:44:06;8.40;;;4.85;;
64208;SDS011;50527;52.414;13.226;2022-08-19T04:46:32;8.80;;;4.78;;
64208;SDS011;50527;52.414;13.226;2022-08-19T04:48:58;9.18;;;4.57;;
64208;SDS011;50527;52.414;13.226;2022-08-19T04:51:24;9.00;;;4.53;;
64208;SDS011;50527;52.414;13.226;2022-08-19T04:53:50;6.65;;;4.47;;
64208;SDS011;50527;52.414;13.226;2022-08-19T04:56:17;7.57;;;4.10;;
64208;SDS011;50527;52.414;13.226;2022-08-19T04:58:46;8.55;;;4.30;;
64208;SDS011;50527;52.414;13.226;2022-08-19T05:01:23;12.43;;;4.43;;
64208;SDS011;50527;52.414;13.226;2022-08-19T05:03:53;6.53;;;3.65;;
64208;SDS011;50527;52.414;13.226;2022-08-19T05:06:19;8.00;;;3.90;;
64208;SDS011;50527;52.414;13.226;2022-08-19T05:08:46;6.07;;;3.63;;
64208;SDS011;50527;52.414;13.226;2022-08-19T05:11:14;6.13;;;3.60;;
64208;SDS011;50527;52.414;13.226;2022-08-19T05:13:47;6.57;;;3.72;;
64208;SDS011;50527;52.414;13.226;2022-08-19T05:16:14;7.43;;;3.70;;
64208;SDS011;50527;52.414;13.226;2022-08-19T05:18:41;6.72;;;3.80;;
64208;SDS011;50527;52.414;13.226;2022-08-19T05:21:25;7.18;;;3.58;;
64208;SDS011;50527;52.414;13.226;2022-08-19T05:24:10;6.25;;;3.85;;
64208;SDS011;50527;52.414;13.226;2022-08-19T05:26:37;6.32;;;3.90;;
64208;SDS011;50527;52.414;13.226;2022-08-19T05:29:03;7.32;;;4.47;;
64208;SDS011;50527;52.414;13.226;2022-08-19T05:31:29;8.68;;;4.65;;
64208;SDS011;50527;52.414;13.226;2022-08-19T05:33:56;7.18;;;4.35;;
64208;SDS011;50527;52.414;13.226;2022-08-19T05:36:23;8.25;;;4.03;;
64208;SDS011;50527;52.414;13.226;2022-08-19T05:38:49;8.80;;;4.28;;
64208;SDS011;50527;52.414;13.226;2022-08-19T05:41:17;8.35;;;4.47;;
64208;SDS011;50527;52.414;13.226;2022-08-19T05:43:42;7.57;;;4.28;;
64208;SDS011;50527;52.414;13.226;2022-08-19T05:46:08;7.68;;;3.78;;
64208;SDS011;50527;52.414;13.226;2022-08-19T05:51:06;6.38;;;3.60;;
64208;SDS011;50527;52.414;13.226;2022-08-19T05:53:33;9.95;;;4.25;;
64208;SDS011;50527;52.414;13.226;2022-08-19T05:56:03;6.63;;;3.95;;
64208;SDS011;50527;52.414;13.226;2022-08-19T05:58:33;7.35;;;3.95;;
64208;SDS011;50527;52.414;13.226;2022-08-19T06:00:59;9.80;;;4.43;;
64208;SDS011;50527;52.414;13.226;2022-08-19T06:03:30;11.18;;;4.07;;
64208;SDS011;50527;52.414;13.226;2022-08-19T06:05:57;9.00;;;3.95;;
64208;SDS011;50527;52.414;13.226;2022-08-19T06:08:24;10.80;;;4.40;;
64208;SDS011;50527;52.414;13.226;2022-08-19T06:10:50;6.78;;;4.25;;
64208;SDS011;50527;52.414;13.226;2022-08-19T06:13:15;10.82;;;4.20;;
64208;SDS011;50527;52.414;13.226;2022-08-19T06:15:42;9.02;;;4.00;;
64208;SDS011;50527;52.414;13.226;2022-08-19T06:18:09;6.32;;;4.03;;
64208;SDS011;50527;52.414;13.226;2022-08-19T06:20:34;6.75;;;4.20;;
64208;SDS011;50527;52.414;13.226;2022-08-19T06:23:00;8.52;;;4.60;;
64208;SDS011;50527;52.414;13.226;2022-08-19T06:25:25;11.50;;;4.68;;
64208;SDS011;50527;52.414;13.226;2022-08-19T06:27:51;8.02;;;4.47;;
64208;SDS011;50527;52.414;13.226;2022-08-19T06:30:16;10.27;;;4.43;;
64208;SDS011;50527;52.414;13.226;2022-08-19T06:32:42;8.68;;;4.18;;
64208;SDS011;50527;52.414;13.226;2022-08-19T06:35:07;8.40;;;4.47;;
64208;SDS011;50527;52.414;13.226;2022-08-19T06:37:33;7.65;;;4.03;;
64208;SDS011;50527;52.414;13.226;2022-08-19T06:39:59;7.20;;;4.10;;
64208;SDS011;50527;52.414;13.226;2022-08-19T06:42:24;7.45;;;4.50;;
64208;SDS011;50527;52.414;13.226;2022-08-19T06:44:49;10.43;;;4.53;;
64208;SDS011;50527;52.414;13.226;2022-08-19T06:47:16;8.93;;;4.47;;
64208;SDS011;50527;52.414;13.226;2022-08-19T06:49:43;9.15;;;4.30;;
64208;SDS011;50527;52.414;13.226;2022-08-19T06:52:09;12.00;;;4.43;;
64208;SDS011;50527;52.414;13.226;2022-08-19T06:54:39;9.77;;;4.30;;
64208;SDS011;50527;52.414;13.226;2022-08-19T06:57:07;11.45;;;4.57;;
64208;SDS011;50527;52.414;13.226;2022-08-19T06:59:38;8.70;;;4.45;;
64208;SDS011;50527;52.414;13.226;2022-08-19T07:02:05;8.90;;;4.22;;
64208;SDS011;50527;52.414;13.226;2022-08-19T07:04:32;7.47;;;4.15;;
64208;SDS011;50527;52.414;13.226;2022-08-19T07:07:01;7.38;;;4.18;;
64208;SDS011;50527;52.414;13.226;2022-08-19T07:09:33;7.30;;;4.32;;
64208;SDS011;50527;52.414;13.226;2022-08-19T07:11:58;8.73;;;4.57;;
64208;SDS011;50527;52.414;13.226;2022-08-19T07:14:26;6.05;;;3.85;;
64208;SDS011;50527;52.414;13.226;2022-08-19T07:16:52;8.45;;;3.80;;
64208;SDS011;50527;52.414;13.226;2022-08-19T07:19:23;9.27;;;4.20;;
64208;SDS011;50527;52.414;13.226;2022-08-19T07:21:51;6.70;;;3.72;;
64208;SDS011;50527;52.414;13.226;2022-08-19T07:24:18;7.85;;;4.28;;
64208;SDS011;50527;52.414;13.226;2022-08-19T07:26:49;5.93;;;4.03;;
64208;SDS011;50527;52.414;13.226;2022-08-19T07:29:15;6.47;;;3.85;;
64208;SDS011;50527;52.414;13.226;2022-08-19T07:31:41;7.32;;;3.90;;
64208;SDS011;50527;52.414;13.226;2022-08-19T07:34:08;7.57;;;4.00;;
64208;SDS011;50527;52.414;13.226;2022-08-19T07:36:38;7.40;;;4.10;;
64208;SDS011;50527;52.414;13.226;2022-08-19T07:39:07;6.80;;;3.80;;
64208;SDS011;50527;52.414;13.226;2022-08-19T07:41:41;7.50;;;3.97;;
64208;SDS011;50527;52.414;13.226;2022-08-19T07:44:07;8.00;;;4.15;;
64208;SDS011;50527;52.414;13.226;2022-08-19T07:46:34;7.97;;;4.15;;
64208;SDS011;50527;52.414;13.226;2022-08-19T07:49:02;6.13;;;4.18;;
64208;SDS011;50527;52.414;13.226;2022-08-19T07:51:30;5.60;;;3.60;;
64208;SDS011;50527;52.414;13.226;2022-08-19T07:53:55;7.82;;;3.78;;
64208;SDS011;50527;52.414;13.226;2022-08-19T07:56:21;6.88;;;4.07;;
64208;SDS011;50527;52.414;13.226;2022-08-19T07:58:48;7.50;;;4.13;;
64208;SDS011;50527;52.414;13.226;2022-08-19T08:01:17;7.18;;;4.00;;
64208;SDS011;50527;52.414;13.226;2022-08-19T08:03:44;8.88;;;3.72;;
64208;SDS011;50527;52.414;13.226;2022-08-19T08:06:28;7.05;;;4.13;;
64208;SDS011;50527;52.414;13.226;2022-08-19T08:09:13;7.07;;;4.13;;
64208;SDS011;50527;52.414;13.226;2022-08-19T08:11:51;8.50;;;4.00;;
64208;SDS011;50527;52.414;13.226;2022-08-19T08:17:07;6.80;;;3.90;;
64208;SDS011;50527;52.414;13.226;2022-08-19T08:19:34;7.63;;;4.13;;
64208;SDS011;50527;52.414;13.226;2022-08-19T08:22:01;6.72;;;4.00;;
64208;SDS011;50527;52.414;13.226;2022-08-19T08:24:28;7.38;;;4.38;;
64208;SDS011;50527;52.414;13.226;2022-08-19T08:26:56;7.68;;;4.28;;
64208;SDS011;50527;52.414;13.226;2022-08-19T08:29:24;6.57;;;3.90;;
64208;SDS011;50527;52.414;13.226;2022-08-19T08:31:50;8.93;;;4.10;;
64208;SDS011;50527;52.414;13.226;2022-08-19T08:34:16;6.85;;;4.35;;
64208;SDS011;50527;52.414;13.226;2022-08-19T08:36:43;7.30;;;4.60;;
64208;SDS011;50527;52.414;13.226;2022-08-19T08:39:17;6.63;;;4.13;;
64208;SDS011;50527;52.414;13.226;2022-08-19T08:41:52;7.03;;;4.25;;
64208;SDS011;50527;52.414;13.226;2022-08-19T08:47:02;11.05;;;5.10;;
64208;SDS011;50527;52.414;13.226;2022-08-19T08:52:11;6.07;;;4.35;;
64208;SDS011;50527;52.414;13.226;2022-08-19T08:54:42;7.63;;;4.50;;
64208;SDS011;50527;52.414;13.226;2022-08-19T08:57:12;10.45;;;4.53;;
64208;SDS011;50527;52.414;13.226;2022-08-19T08:59:46;5.78;;;4.20;;
64208;SDS011;50527;52.414;13.226;2022-08-19T09:02:15;8.13;;;4.45;;
64208;SDS011;50527;52.414;13.226;2022-08-19T09:04:41;7.00;;;4.30;;
64208;SDS011;50527;52.414;13.226;2022-08-19T09:07:20;5.60;;;4.20;;
64208;SDS011;50527;52.414;13.226;2022-08-19T09:12:53;6.28;;;4.18;;
64208;SDS011;50527;52.414;13.226;2022-08-19T09:15:39;7.85;;;4.30;;
64208;SDS011;50527;52.414;13.226;2022-08-19T09:18:09;7.18;;;4.50;;
64208;SDS011;50527;52.414;13.226;2022-08-19T09:20:35;6.18;;;3.90;;
64208;SDS011;50527;52.414;13.226;2022-08-19T09:23:01;5.78;;;4.00;;
64208;SDS011;50527;52.414;13.226;2022-08-19T09:25:28;7.20;;;3.92;;
64208;SDS011;50527;52.414;13.226;2022-08-19T09:27:55;8.40;;;4.25;;
64208;SDS011;50527;52.414;13.226;2022-08-19T09:30:26;7.28;;;4.32;;
64208;SDS011;50527;52.414;13.226;2022-08-19T09:32:53;7.70;;;3.85;;
64208;SDS011;50527;52.414;13.226;2022-08-19T09:35:22;5.50;;;3.67;;
64208;SDS011;50527;52.414;13.226;2022-08-19T09:37:50;9.73;;;4.00;;
64208;SDS011;50527;52.414;13.226;2022-08-19T09:40:17;7.68;;;3.97;;
64208;SDS011;50527;52.414;13.226;2022-08-19T09:42:43;5.32;;;3.65;;
64208;SDS011;50527;52.414;13.226;2022-08-19T09:45:11;7.10;;;3.78;;
64208;SDS011;50527;52.414;13.226;2022-08-19T09:47:37;5.55;;;3.60;;
64208;SDS011;50527;52.414;13.226;2022-08-19T09:50:07;5.65;;;3.33;;
64208;SDS011;50527;52.414;13.226;2022-08-19T09:52:33;7.53;;;3.28;;
64208;SDS011;50527;52.414;13.226;2022-08-19T09:55:01;6.78;;;3.33;;
64208;SDS011;50527;52.414;13.226;2022-08-19T09:57:31;7.18;;;3.70;;
64208;SDS011;50527;52.414;13.226;2022-08-19T09:59:57;5.35;;;3.50;;
64208;SDS011;50527;52.414;13.226;2022-08-19T10:02:23;6.05;;;3.20;;
64208;SDS011;50527;52.414;13.226;2022-08-19T10:04:49;6.45;;;3.63;;
64208;SDS011;50527;52.414;13.226;2022-08-19T10:07:34;6.13;;;3.28;;
64208;SDS011;50527;52.414;13.226;2022-08-19T10:10:00;5.55;;;3.53;;
64208;SDS011;50527;52.414;13.226;2022-08-19T10:12:26;4.57;;;3.33;;
64208;SDS011;50527;52.414;13.226;2022-08-19T10:14:51;5.47;;;3.22;;
64208;SDS011;50527;52.414;13.226;2022-08-19T10:17:18;7.05;;;3.33;;
64208;SDS011;50527;52.414;13.226;2022-08-19T10:19:44;7.47;;;3.72;;
64208;SDS011;50527;52.414;13.226;2022-08-19T10:22:09;7.57;;;3.63;;
64208;SDS011;50527;52.414;13.226;2022-08-19T10:24:38;4.78;;;3.60;;
64208;SDS011;50527;52.414;13.226;2022-08-19T10:27:04;7.55;;;3.42;;
64208;SDS011;50527;52.414;13.226;2022-08-19T10:29:30;6.30;;;3.33;;
64208;SDS011;50527;52.414;13.226;2022-08-19T10:31:56;4.43;;;3.28;;
64208;SDS011;50527;52.414;13.226;2022-08-19T10:34:23;5.38;;;2.95;;
64208;SDS011;50527;52.414;13.226;2022-08-19T10:36:49;5.97;;;2.90;;
64208;SDS011;50527;52.414;13.226;2022-08-19T10:39:15;5.57;;;2.72;;
64208;SDS011;50527;52.414;13.226;2022-08-19T10:41:40;6.53;;;3.50;;
64208;SDS011;50527;52.414;13.226;2022-08-19T10:44:09;6.22;;;2.90;;
64208;SDS011;50527;52.414;13.226;2022-08-19T10:46:37;6.47;;;2.90;;
64208;SDS011;50527;52.414;13.226;2022-08-19T10:49:06;5.10;;;3.15;;
64208;SDS011;50527;52.414;13.226;2022-08-19T10:51:33;6.85;;;3.38;;
64208;SDS011;50527;52.414;13.226;2022-08-19T10:54:17;7.20;;;3.35;;
64208;SDS011;50527;52.414;13.226;2022-08-19T10:56:43;5.03;;;3.13;;
64208;SDS011;50527;52.414;13.226;2022-08-19T10:59:25;4.63;;;3.22;;
64208;SDS011;50527;52.414;13.226;2022-08-19T11:01:54;5.68;;;3.28;;
64208;SDS011;50527;52.414;13.226;2022-08-19T11:04:23;9.57;;;3.42;;
64208;SDS011;50527;52.414;13.226;2022-08-19T11:06:49;7.55;;;3.63;;
64208;SDS011;50527;52.414;13.226;2022-08-19T11:09:16;5.13;;;3.38;;
64208;SDS011;50527;52.414;13.226;2022-08-19T11:11:46;5.57;;;3.22;;
64208;SDS011;50527;52.414;13.226;2022-08-19T11:14:14;6.38;;;3.35;;
64208;SDS011;50527;52.414;13.226;2022-08-19T11:16:43;5.57;;;3.47;;
64208;SDS011;50527;52.414;13.226;2022-08-19T11:19:09;6.60;;;3.42;;
64208;SDS011;50527;52.414;13.226;2022-08-19T11:21:36;5.45;;;3.63;;
64208;SDS011;50527;52.414;13.226;2022-08-19T11:24:05;5.05;;;2.95;;
64208;SDS011;50527;52.414;13.226;2022-08-19T11:26:33;4.78;;;3.28;;
64208;SDS011;50527;52.414;13.226;2022-08-19T11:29:00;4.38;;;3.30;;
64208;SDS011;50527;52.414;13.226;2022-08-19T11:31:27;5.00;;;3.42;;
64208;SDS011;50527;52.414;13.226;2022-08-19T11:33:58;5.47;;;3.38;;
64208;SDS011;50527;52.414;13.226;2022-08-19T11:36:25;6.60;;;3.40;;
64208;SDS011;50527;52.414;13.226;2022-08-19T11:38:51;7.70;;;3.38;;
64208;SDS011;50527;52.414;13.226;2022-08-19T11:41:17;5.68;;;3.28;;
64208;SDS011;50527;52.414;13.226;2022-08-19T11:43:44;5.22;;;3.08;;
64208;SDS011;50527;52.414;13.226;2022-08-19T11:46:11;6.63;;;2.83;;
64208;SDS011;50527;52.414;13.226;2022-08-19T11:48:39;4.07;;;2.50;;
64208;SDS011;50527;52.414;13.226;2022-08-19T11:51:09;4.38;;;2.60;;
64208;SDS011;50527;52.414;13.226;2022-08-19T11:53:39;4.13;;;2.75;;
64208;SDS011;50527;52.414;13.226;2022-08-19T11:56:05;4.55;;;2.50;;
64208;SDS011;50527;52.414;13.226;2022-08-19T11:58:32;5.20;;;2.50;;
64208;SDS011;50527;52.414;13.226;2022-08-19T12:00:57;5.05;;;2.30;;
64208;SDS011;50527;52.414;13.226;2022-08-19T12:03:23;7.97;;;2.60;;
64208;SDS011;50527;52.414;13.226;2022-08-19T12:05:49;4.57;;;2.33;;
64208;SDS011;50527;52.414;13.226;2022-08-19T12:08:14;6.68;;;2.55;;
64208;SDS011;50527;52.414;13.226;2022-08-19T12:10:41;5.63;;;2.13;;
64208;SDS011;50527;52.414;13.226;2022-08-19T12:13:07;5.95;;;2.72;;
64208;SDS011;50527;52.414;13.226;2022-08-19T12:15:37;4.47;;;2.20;;
64208;SDS011;50527;52.414;13.226;2022-08-19T12:18:05;4.73;;;2.43;;
64208;SDS011;50527;52.414;13.226;2022-08-19T12:20:30;4.90;;;2.60;;
64208;SDS011;50527;52.414;13.226;2022-08-19T12:22:58;5.18;;;2.60;;
64208;SDS011;50527;52.414;13.226;2022-08-19T12:25:24;3.72;;;2.50;;
64208;SDS011;50527;52.414;13.226;2022-08-19T12:27:50;3.47;;;2.30;;
64208;SDS011;50527;52.414;13.226;2022-08-19T12:30:15;3.50;;;2.25;;
64208;SDS011;50527;52.414;13.226;2022-08-19T12:32:41;6.32;;;2.45;;
64208;SDS011;50527;52.414;13.226;2022-08-19T12:35:07;4.90;;;2.55;;
64208;SDS011;50527;52.414;13.226;2022-08-19T12:37:34;4.50;;;2.50;;
64208;SDS011;50527;52.414;13.226;2022-08-19T12:39:59;3.97;;;2.50;;
64208;SDS011;50527;52.414;13.226;2022-08-19T12:42:25;3.40;;;2.40;;
64208;SDS011;50527;52.414;13.226;2022-08-19T12:44:50;4.28;;;2.28;;
64208;SDS011;50527;52.414;13.226;2022-08-19T12:47:16;4.93;;;2.30;;
64208;SDS011;50527;52.414;13.226;2022-08-19T12:49:42;3.63;;;2.30;;
64208;SDS011;50527;52.414;13.226;2022-08-19T12:52:09;6.63;;;2.50;;
64208;SDS011;50527;52.414;13.226;2022-08-19T12:54:35;3.40;;;2.17;;
64208;SDS011;50527;52.414;13.226;2022-08-19T12:57:05;3.88;;;2.30;;
64208;SDS011;50527;52.414;13.226;2022-08-19T12:59:32;2.83;;;1.83;;
64208;SDS011;50527;52.414;13.226;2022-08-19T13:01:59;8.13;;;3.38;;
64208;SDS011;50527;52.414;13.226;2022-08-19T13:04:24;8.32;;;4.90;;
64208;SDS011;50527;52.414;13.226;2022-08-19T13:06:50;8.68;;;4.38;;
64208;SDS011;50527;52.414;13.226;2022-08-19T13:09:15;9.13;;;4.80;;
64208;SDS011;50527;52.414;13.226;2022-08-19T13:11:41;8.48;;;4.65;;
64208;SDS011;50527;52.414;13.226;2022-08-19T13:14:08;8.35;;;5.40;;
64208;SDS011;50527;52.414;13.226;2022-08-19T13:16:36;8.45;;;5.43;;
64208;SDS011;50527;52.414;13.226;2022-08-19T13:19:02;9.82;;;5.15;;
64208;SDS011;50527;52.414;13.226;2022-08-19T13:21:29;8.73;;;5.13;;
64208;SDS011;50527;52.414;13.226;2022-08-19T13:23:55;9.18;;;5.13;;
64208;SDS011;50527;52.414;13.226;2022-08-19T13:26:21;8.30;;;4.80;;
64208;SDS011;50527;52.414;13.226;2022-08-19T13:28:46;11.00;;;5.07;;
64208;SDS011;50527;52.414;13.226;2022-08-19T13:31:32;7.93;;;5.05;;
64208;SDS011;50527;52.414;13.226;2022-08-19T13:34:18;7.38;;;4.80;;
64208;SDS011;50527;52.414;13.226;2022-08-19T13:36:51;9.85;;;4.95;;
64208;SDS011;50527;52.414;13.226;2022-08-19T13:39:18;10.43;;;5.47;;
64208;SDS011;50527;52.414;13.226;2022-08-19T13:41:44;8.48;;;5.40;;
64208;SDS011;50527;52.414;13.226;2022-08-19T13:44:15;13.82;;;7.38;;
64208;SDS011;50527;52.414;13.226;2022-08-19T13:46:43;9.52;;;6.25;;
64208;SDS011;50527;52.414;13.226;2022-08-19T13:49:10;8.43;;;4.93;;
64208;SDS011;50527;52.414;13.226;2022-08-19T13:51:37;6.32;;;4.20;;
64208;SDS011;50527;52.414;13.226;2022-08-19T13:54:04;7.32;;;4.47;;
64208;SDS011;50527;52.414;13.226;2022-08-19T13:56:30;9.10;;;4.53;;
64208;SDS011;50527;52.414;13.226;2022-08-19T13:58:56;7.07;;;4.65;;
64208;SDS011;50527;52.414;13.226;2022-08-19T14:01:22;6.38;;;4.30;;
64208;SDS011;50527;52.414;13.226;2022-08-19T14:03:48;7.82;;;4.15;;
64208;SDS011;50527;52.414;13.226;2022-08-19T14:06:14;9.93;;;4.35;;
64208;SDS011;50527;52.414;13.226;2022-08-19T14:08:39;7.13;;;4.13;;
64208;SDS011;50527;52.414;13.226;2022-08-19T14:11:06;7.30;;;3.97;;
64208;SDS011;50527;52.414;13.226;2022-08-19T14:13:32;8.18;;;4.10;;
64208;SDS011;50527;52.414;13.226;2022-08-19T14:15:58;6.75;;;4.03;;
64208;SDS011;50527;52.414;13.226;2022-08-19T14:18:24;6.35;;;3.50;;
64208;SDS011;50527;52.414;13.226;2022-08-19T14:20:50;7.65;;;3.65;;
64208;SDS011;50527;52.414;13.226;2022-08-19T14:23:16;9.73;;;3.83;;
64208;SDS011;50527;52.414;13.226;2022-08-19T14:25:42;9.55;;;4.40;;
64208;SDS011;50527;52.414;13.226;2022-08-19T14:28:08;6.45;;;3.83;;
64208;SDS011;50527;52.414;13.226;2022-08-19T14:30:34;5.80;;;3.78;;
64208;SDS011;50527;52.414;13.226;2022-08-19T14:33:02;4.68;;;3.42;;
64208;SDS011;50527;52.414;13.226;2022-08-19T14:35:29;6.38;;;3.72;;
64208;SDS011;50527;52.414;13.226;2022-08-19T14:37:59;5.50;;;3.45;;
64208;SDS011;50527;52.414;13.226;2022-08-19T14:40:25;6.15;;;3.85;;
64208;SDS011;50527;52.414;13.226;2022-08-19T14:42:53;7.13;;;3.70;;
64208;SDS011;50527;52.414;13.226;2022-08-19T14:45:24;7.15;;;4.13;;
64208;SDS011;50527;52.414;13.226;2022-08-19T14:47:52;6.35;;;3.50;;
64208;SDS011;50527;52.414;13.226;2022-08-19T14:50:17;8.05;;;3.70;;
64208;SDS011;50527;52.414;13.226;2022-08-19T14:52:45;6.82;;;3.70;;
64208;SDS011;50527;52.414;13.226;2022-08-19T14:55:12;5.68;;;3.42;;